sensor_id;sensor_type;location;lat;lon;timestamp;P1;durP1;ratioP1;P2;durP2;ratioP2
58196;SDS011;43999;51.660;5.616;2023-06-05T00:00:54;7.10;;;4.63;;
58196;SDS011;43999;51.660;5.616;2023-06-05T00:03:21;6.15;;;4.20;;
58196;SDS011;43999;51.660;5.616;2023-06-05T00:05:51;5.22;;;4.18;;
58196;SDS011;43999;51.660;5.616;2023-06-05T00:08:18;6.68;;;3.92;;
58196;SDS011;43999;51.660;5.616;2023-06-05T00:10:45;8.40;;;4.85;;
58196;SDS011;43999;51.660;5.616;2023-06-05T00:13:13;6.38;;;3.88;;
58196;SDS011;43999;51.660;5.616;2023-06-05T00:15:40;6.38;;;4.13;;
58196;SDS011;43999;51.660;5.616;2023-06-05T00:18:07;6.15;;;4.15;;
58196;SDS011;43999;51.660;5.616;2023-06-05T00:20:35;5.30;;;4.63;;
58196;SDS011;43999;51.660;5.616;2023-06-05T00:23:02;7.78;;;3.80;;
58196;SDS011;43999;51.660;5.616;2023-06-05T00:25:30;7.03;;;5.00;;
58196;SDS011;43999;51.660;5.616;2023-06-05T00:27:57;4.97;;;4.20;;
58196;SDS011;43999;51.660;5.616;2023-06-05T00:30:24;5.07;;;4.03;;
58196;SDS011;43999;51.660;5.616;2023-06-05T00:32:53;4.90;;;4.35;;
58196;SDS011;43999;51.660;5.616;2023-06-05T00:35:20;4.70;;;4.18;;
58196;SDS011;43999;51.660;5.616;2023-06-05T00:37:48;9.90;;;4.15;;
58196;SDS011;43999;51.660;5.616;2023-06-05T00:40:16;5.40;;;3.95;;
58196;SDS011;43999;51.660;5.616;2023-06-05T00:42:44;6.13;;;4.25;;
58196;SDS011;43999;51.660;5.616;2023-06-05T00:45:11;6.65;;;4.30;;
58196;SDS011;43999;51.660;5.616;2023-06-05T00:47:39;4.82;;;4.20;;
58196;SDS011;43999;51.660;5.616;2023-06-05T00:50:07;6.68;;;5.15;;
58196;SDS011;43999;51.660;5.616;2023-06-05T00:52:38;7.00;;;5.28;;
58196;SDS011;43999;51.660;5.616;2023-06-05T00:55:08;7.78;;;4.55;;
58196;SDS011;43999;51.660;5.616;2023-06-05T00:57:38;6.18;;;4.40;;
58196;SDS011;43999;51.660;5.616;2023-06-05T01:00:07;5.53;;;4.72;;
58196;SDS011;43999;51.660;5.616;2023-06-05T01:02:39;6.40;;;4.30;;
58196;SDS011;43999;51.660;5.616;2023-06-05T01:05:12;4.85;;;3.83;;
58196;SDS011;43999;51.660;5.616;2023-06-05T01:07:39;8.13;;;4.63;;
58196;SDS011;43999;51.660;5.616;2023-06-05T01:10:07;8.65;;;5.45;;
58196;SDS011;43999;51.660;5.616;2023-06-05T01:12:38;6.55;;;4.72;;
58196;SDS011;43999;51.660;5.616;2023-06-05T01:15:33;6.18;;;4.35;;
58196;SDS011;43999;51.660;5.616;2023-06-05T01:18:05;6.65;;;4.78;;
58196;SDS011;43999;51.660;5.616;2023-06-05T01:20:34;5.43;;;4.90;;
58196;SDS011;43999;51.660;5.616;2023-06-05T01:23:06;5.85;;;4.00;;
58196;SDS011;43999;51.660;5.616;2023-06-05T01:25:39;7.00;;;3.58;;
58196;SDS011;43999;51.660;5.616;2023-06-05T01:31:11;6.22;;;4.63;;
58196;SDS011;43999;51.660;5.616;2023-06-05T01:33:47;8.20;;;5.15;;
58196;SDS011;43999;51.660;5.616;2023-06-05T01:36:28;5.18;;;4.43;;
58196;SDS011;43999;51.660;5.616;2023-06-05T01:38:58;10.48;;;6.00;;
58196;SDS011;43999;51.660;5.616;2023-06-05T01:41:27;6.50;;;5.20;;
58196;SDS011;43999;51.660;5.616;2023-06-05T01:43:55;10.88;;;6.00;;
58196;SDS011;43999;51.660;5.616;2023-06-05T01:46:23;8.48;;;6.03;;
58196;SDS011;43999;51.660;5.616;2023-06-05T01:48:51;6.57;;;5.82;;
58196;SDS011;43999;51.660;5.616;2023-06-05T01:51:21;9.75;;;7.07;;
58196;SDS011;43999;51.660;5.616;2023-06-05T01:53:48;6.00;;;5.32;;
58196;SDS011;43999;51.660;5.616;2023-06-05T01:56:16;6.57;;;5.40;;
58196;SDS011;43999;51.660;5.616;2023-06-05T01:58:50;6.13;;;5.00;;
58196;SDS011;43999;51.660;5.616;2023-06-05T02:01:19;7.75;;;5.35;;
58196;SDS011;43999;51.660;5.616;2023-06-05T02:03:49;10.40;;;5.95;;
58196;SDS011;43999;51.660;5.616;2023-06-05T02:06:17;7.93;;;5.72;;
58196;SDS011;43999;51.660;5.616;2023-06-05T02:08:44;7.40;;;5.15;;
58196;SDS011;43999;51.660;5.616;2023-06-05T02:11:11;7.93;;;6.07;;
58196;SDS011;43999;51.660;5.616;2023-06-05T02:13:39;10.18;;;6.90;;
58196;SDS011;43999;51.660;5.616;2023-06-05T02:16:09;7.18;;;6.47;;
58196;SDS011;43999;51.660;5.616;2023-06-05T02:18:38;7.70;;;6.10;;
58196;SDS011;43999;51.660;5.616;2023-06-05T02:21:05;7.78;;;5.63;;
58196;SDS011;43999;51.660;5.616;2023-06-05T02:23:32;6.75;;;5.95;;
58196;SDS011;43999;51.660;5.616;2023-06-05T02:26:00;7.55;;;5.97;;
58196;SDS011;43999;51.660;5.616;2023-06-05T02:28:27;10.18;;;6.38;;
58196;SDS011;43999;51.660;5.616;2023-06-05T02:30:55;7.22;;;5.53;;
58196;SDS011;43999;51.660;5.616;2023-06-05T02:33:22;14.82;;;7.65;;
58196;SDS011;43999;51.660;5.616;2023-06-05T02:35:50;7.47;;;6.47;;
58196;SDS011;43999;51.660;5.616;2023-06-05T02:38:18;6.53;;;5.50;;
58196;SDS011;43999;51.660;5.616;2023-06-05T02:40:46;7.05;;;6.05;;
58196;SDS011;43999;51.660;5.616;2023-06-05T02:43:13;11.63;;;6.30;;
58196;SDS011;43999;51.660;5.616;2023-06-05T02:45:44;8.52;;;5.95;;
58196;SDS011;43999;51.660;5.616;2023-06-05T02:48:12;9.95;;;4.95;;
58196;SDS011;43999;51.660;5.616;2023-06-05T02:50:39;8.60;;;6.00;;
58196;SDS011;43999;51.660;5.616;2023-06-05T02:53:08;7.55;;;5.88;;
58196;SDS011;43999;51.660;5.616;2023-06-05T02:55:38;6.90;;;5.57;;
58196;SDS011;43999;51.660;5.616;2023-06-05T02:58:11;9.45;;;6.43;;
58196;SDS011;43999;51.660;5.616;2023-06-05T03:00:59;7.03;;;6.32;;
58196;SDS011;43999;51.660;5.616;2023-06-05T03:03:40;7.25;;;6.18;;
58196;SDS011;43999;51.660;5.616;2023-06-05T03:06:07;7.28;;;6.50;;
58196;SDS011;43999;51.660;5.616;2023-06-05T03:08:41;8.50;;;7.22;;
58196;SDS011;43999;51.660;5.616;2023-06-05T03:11:12;8.52;;;6.95;;
58196;SDS011;43999;51.660;5.616;2023-06-05T03:13:40;7.47;;;5.93;;
58196;SDS011;43999;51.660;5.616;2023-06-05T03:16:07;8.32;;;6.93;;
58196;SDS011;43999;51.660;5.616;2023-06-05T03:18:41;11.48;;;8.10;;
58196;SDS011;43999;51.660;5.616;2023-06-05T03:21:08;8.50;;;7.07;;
58196;SDS011;43999;51.660;5.616;2023-06-05T03:23:37;8.95;;;6.70;;
58196;SDS011;43999;51.660;5.616;2023-06-05T03:26:05;10.02;;;8.70;;
58196;SDS011;43999;51.660;5.616;2023-06-05T03:28:32;11.35;;;6.70;;
58196;SDS011;43999;51.660;5.616;2023-06-05T03:31:04;8.13;;;6.55;;
58196;SDS011;43999;51.660;5.616;2023-06-05T03:33:36;8.80;;;7.90;;
58196;SDS011;43999;51.660;5.616;2023-06-05T03:36:04;8.00;;;6.95;;
58196;SDS011;43999;51.660;5.616;2023-06-05T03:38:33;9.02;;;6.72;;
58196;SDS011;43999;51.660;5.616;2023-06-05T03:41:01;10.40;;;8.43;;
58196;SDS011;43999;51.660;5.616;2023-06-05T03:43:28;11.07;;;7.97;;
58196;SDS011;43999;51.660;5.616;2023-06-05T03:45:56;9.13;;;6.70;;
58196;SDS011;43999;51.660;5.616;2023-06-05T03:48:25;8.68;;;6.80;;
58196;SDS011;43999;51.660;5.616;2023-06-05T03:50:53;8.82;;;7.15;;
58196;SDS011;43999;51.660;5.616;2023-06-05T03:53:23;8.25;;;6.53;;
58196;SDS011;43999;51.660;5.616;2023-06-05T03:55:51;11.18;;;7.75;;
58196;SDS011;43999;51.660;5.616;2023-06-05T03:58:31;11.18;;;7.93;;
58196;SDS011;43999;51.660;5.616;2023-06-05T04:01:00;10.98;;;8.90;;
58196;SDS011;43999;51.660;5.616;2023-06-05T04:03:28;10.77;;;8.40;;
58196;SDS011;43999;51.660;5.616;2023-06-05T04:05:55;11.07;;;8.55;;
58196;SDS011;43999;51.660;5.616;2023-06-05T04:08:23;10.77;;;7.38;;
58196;SDS011;43999;51.660;5.616;2023-06-05T04:10:52;10.13;;;8.20;;
58196;SDS011;43999;51.660;5.616;2023-06-05T04:13:19;11.55;;;6.78;;
58196;SDS011;43999;51.660;5.616;2023-06-05T04:15:48;14.68;;;8.70;;
58196;SDS011;43999;51.660;5.616;2023-06-05T04:18:16;10.88;;;8.43;;
58196;SDS011;43999;51.660;5.616;2023-06-05T04:20:46;9.20;;;8.30;;
58196;SDS011;43999;51.660;5.616;2023-06-05T04:23:14;9.93;;;7.40;;
58196;SDS011;43999;51.660;5.616;2023-06-05T04:25:42;11.85;;;8.80;;
58196;SDS011;43999;51.660;5.616;2023-06-05T04:28:13;11.52;;;8.73;;
58196;SDS011;43999;51.660;5.616;2023-06-05T04:30:42;9.05;;;7.57;;
58196;SDS011;43999;51.660;5.616;2023-06-05T04:33:12;10.07;;;7.88;;
58196;SDS011;43999;51.660;5.616;2023-06-05T04:35:40;10.02;;;7.70;;
58196;SDS011;43999;51.660;5.616;2023-06-05T04:38:07;10.82;;;7.97;;
58196;SDS011;43999;51.660;5.616;2023-06-05T04:40:35;10.07;;;8.18;;
58196;SDS011;43999;51.660;5.616;2023-06-05T04:43:03;10.48;;;8.25;;
58196;SDS011;43999;51.660;5.616;2023-06-05T04:45:30;11.57;;;8.98;;
58196;SDS011;43999;51.660;5.616;2023-06-05T04:47:57;13.55;;;8.95;;
58196;SDS011;43999;51.660;5.616;2023-06-05T04:50:26;11.90;;;10.25;;
58196;SDS011;43999;51.660;5.616;2023-06-05T04:53:02;8.73;;;7.82;;
58196;SDS011;43999;51.660;5.616;2023-06-05T04:55:31;8.70;;;6.95;;
58196;SDS011;43999;51.660;5.616;2023-06-05T04:57:59;10.82;;;8.40;;
58196;SDS011;43999;51.660;5.616;2023-06-05T05:00:29;8.88;;;7.75;;
58196;SDS011;43999;51.660;5.616;2023-06-05T05:02:58;11.57;;;8.50;;
58196;SDS011;43999;51.660;5.616;2023-06-05T05:05:27;15.75;;;9.85;;
58196;SDS011;43999;51.660;5.616;2023-06-05T05:07:55;11.02;;;8.40;;
58196;SDS011;43999;51.660;5.616;2023-06-05T05:10:30;10.65;;;8.60;;
58196;SDS011;43999;51.660;5.616;2023-06-05T05:12:59;11.57;;;9.63;;
58196;SDS011;43999;51.660;5.616;2023-06-05T05:15:29;11.02;;;8.32;;
58196;SDS011;43999;51.660;5.616;2023-06-05T05:17:58;11.18;;;9.07;;
58196;SDS011;43999;51.660;5.616;2023-06-05T05:20:26;10.13;;;8.25;;
58196;SDS011;43999;51.660;5.616;2023-06-05T05:22:53;10.18;;;7.68;;
58196;SDS011;43999;51.660;5.616;2023-06-05T05:25:22;12.57;;;9.15;;
58196;SDS011;43999;51.660;5.616;2023-06-05T05:27:51;10.55;;;8.18;;
58196;SDS011;43999;51.660;5.616;2023-06-05T05:30:20;10.85;;;9.52;;
58196;SDS011;43999;51.660;5.616;2023-06-05T05:32:47;10.20;;;8.55;;
58196;SDS011;43999;51.660;5.616;2023-06-05T05:35:16;10.90;;;8.50;;
58196;SDS011;43999;51.660;5.616;2023-06-05T05:37:43;9.93;;;7.93;;
58196;SDS011;43999;51.660;5.616;2023-06-05T05:40:11;13.10;;;9.48;;
58196;SDS011;43999;51.660;5.616;2023-06-05T05:42:39;12.30;;;8.85;;
58196;SDS011;43999;51.660;5.616;2023-06-05T05:45:11;12.27;;;9.03;;
58196;SDS011;43999;51.660;5.616;2023-06-05T05:47:39;10.50;;;8.30;;
58196;SDS011;43999;51.660;5.616;2023-06-05T05:50:07;12.02;;;8.65;;
58196;SDS011;43999;51.660;5.616;2023-06-05T05:52:35;10.25;;;9.13;;
58196;SDS011;43999;51.660;5.616;2023-06-05T05:55:02;10.05;;;7.68;;
58196;SDS011;43999;51.660;5.616;2023-06-05T05:57:30;12.45;;;9.80;;
58196;SDS011;43999;51.660;5.616;2023-06-05T05:59:58;12.48;;;9.30;;
58196;SDS011;43999;51.660;5.616;2023-06-05T06:02:25;11.23;;;8.80;;
58196;SDS011;43999;51.660;5.616;2023-06-05T06:04:52;9.57;;;8.30;;
58196;SDS011;43999;51.660;5.616;2023-06-05T06:07:20;9.95;;;7.63;;
58196;SDS011;43999;51.660;5.616;2023-06-05T06:09:48;11.60;;;8.60;;
58196;SDS011;43999;51.660;5.616;2023-06-05T06:12:15;9.73;;;7.97;;
58196;SDS011;43999;51.660;5.616;2023-06-05T06:14:43;14.32;;;10.00;;
58196;SDS011;43999;51.660;5.616;2023-06-05T06:17:10;12.13;;;8.70;;
58196;SDS011;43999;51.660;5.616;2023-06-05T06:19:38;11.68;;;8.65;;
58196;SDS011;43999;51.660;5.616;2023-06-05T06:22:07;9.48;;;8.35;;
58196;SDS011;43999;51.660;5.616;2023-06-05T06:24:39;9.73;;;7.72;;
58196;SDS011;43999;51.660;5.616;2023-06-05T06:27:08;10.20;;;8.02;;
58196;SDS011;43999;51.660;5.616;2023-06-05T06:29:57;13.30;;;8.55;;
58196;SDS011;43999;51.660;5.616;2023-06-05T06:32:25;10.18;;;8.23;;
58196;SDS011;43999;51.660;5.616;2023-06-05T06:34:52;15.18;;;9.32;;
58196;SDS011;43999;51.660;5.616;2023-06-05T06:37:21;9.73;;;7.95;;
58196;SDS011;43999;51.660;5.616;2023-06-05T06:39:49;11.50;;;8.73;;
58196;SDS011;43999;51.660;5.616;2023-06-05T06:42:18;12.23;;;8.30;;
58196;SDS011;43999;51.660;5.616;2023-06-05T06:44:59;11.50;;;8.57;;
58196;SDS011;43999;51.660;5.616;2023-06-05T06:47:26;14.15;;;7.82;;
58196;SDS011;43999;51.660;5.616;2023-06-05T06:49:54;10.82;;;7.32;;
58196;SDS011;43999;51.660;5.616;2023-06-05T06:52:21;9.95;;;7.70;;
58196;SDS011;43999;51.660;5.616;2023-06-05T06:54:51;13.10;;;8.13;;
58196;SDS011;43999;51.660;5.616;2023-06-05T06:57:19;9.60;;;7.07;;
58196;SDS011;43999;51.660;5.616;2023-06-05T06:59:46;9.70;;;8.55;;
58196;SDS011;43999;51.660;5.616;2023-06-05T07:02:15;10.90;;;8.23;;
58196;SDS011;43999;51.660;5.616;2023-06-05T07:04:46;11.05;;;8.02;;
58196;SDS011;43999;51.660;5.616;2023-06-05T07:07:15;10.48;;;7.50;;
58196;SDS011;43999;51.660;5.616;2023-06-05T07:09:45;11.27;;;6.72;;
58196;SDS011;43999;51.660;5.616;2023-06-05T07:12:13;10.23;;;6.95;;
58196;SDS011;43999;51.660;5.616;2023-06-05T07:14:43;10.90;;;8.50;;
58196;SDS011;43999;51.660;5.616;2023-06-05T07:17:11;10.27;;;7.03;;
58196;SDS011;43999;51.660;5.616;2023-06-05T07:19:39;8.57;;;6.82;;
58196;SDS011;43999;51.660;5.616;2023-06-05T07:22:07;13.13;;;8.55;;
58196;SDS011;43999;51.660;5.616;2023-06-05T07:24:34;10.40;;;7.95;;
58196;SDS011;43999;51.660;5.616;2023-06-05T07:27:05;9.05;;;7.75;;
58196;SDS011;43999;51.660;5.616;2023-06-05T07:29:32;11.13;;;7.88;;
58196;SDS011;43999;51.660;5.616;2023-06-05T07:32:00;7.88;;;6.57;;
58196;SDS011;43999;51.660;5.616;2023-06-05T07:34:29;9.02;;;7.20;;
58196;SDS011;43999;51.660;5.616;2023-06-05T07:36:57;9.27;;;7.00;;
58196;SDS011;43999;51.660;5.616;2023-06-05T07:39:24;8.75;;;6.57;;
58196;SDS011;43999;51.660;5.616;2023-06-05T07:41:51;9.70;;;7.10;;
58196;SDS011;43999;51.660;5.616;2023-06-05T07:44:19;11.55;;;8.77;;
58196;SDS011;43999;51.660;5.616;2023-06-05T07:46:48;8.35;;;7.40;;
58196;SDS011;43999;51.660;5.616;2023-06-05T07:49:17;11.40;;;8.50;;
58196;SDS011;43999;51.660;5.616;2023-06-05T07:51:45;12.05;;;8.07;;
58196;SDS011;43999;51.660;5.616;2023-06-05T07:54:15;10.48;;;8.32;;
58196;SDS011;43999;51.660;5.616;2023-06-05T07:56:42;12.60;;;7.03;;
58196;SDS011;43999;51.660;5.616;2023-06-05T07:59:10;11.13;;;8.32;;
58196;SDS011;43999;51.660;5.616;2023-06-05T08:01:40;11.90;;;7.65;;
58196;SDS011;43999;51.660;5.616;2023-06-05T08:04:11;9.52;;;7.75;;
58196;SDS011;43999;51.660;5.616;2023-06-05T08:06:42;9.45;;;7.03;;
58196;SDS011;43999;51.660;5.616;2023-06-05T08:09:09;13.55;;;8.77;;
58196;SDS011;43999;51.660;5.616;2023-06-05T08:11:39;9.30;;;7.72;;
58196;SDS011;43999;51.660;5.616;2023-06-05T08:14:10;10.80;;;7.88;;
58196;SDS011;43999;51.660;5.616;2023-06-05T08:16:37;16.20;;;8.32;;
58196;SDS011;43999;51.660;5.616;2023-06-05T08:19:06;10.60;;;8.07;;
58196;SDS011;43999;51.660;5.616;2023-06-05T08:21:33;11.20;;;8.10;;
58196;SDS011;43999;51.660;5.616;2023-06-05T08:24:03;9.73;;;7.65;;
58196;SDS011;43999;51.660;5.616;2023-06-05T08:26:31;11.15;;;8.43;;
58196;SDS011;43999;51.660;5.616;2023-06-05T08:28:59;10.15;;;8.52;;
58196;SDS011;43999;51.660;5.616;2023-06-05T08:31:27;9.30;;;7.57;;
58196;SDS011;43999;51.660;5.616;2023-06-05T08:33:54;9.05;;;6.75;;
58196;SDS011;43999;51.660;5.616;2023-06-05T08:36:22;11.20;;;8.02;;
58196;SDS011;43999;51.660;5.616;2023-06-05T08:38:50;9.80;;;7.53;;
58196;SDS011;43999;51.660;5.616;2023-06-05T08:41:18;13.20;;;9.55;;
58196;SDS011;43999;51.660;5.616;2023-06-05T08:43:45;11.23;;;8.13;;
58196;SDS011;43999;51.660;5.616;2023-06-05T08:46:13;11.43;;;8.63;;
58196;SDS011;43999;51.660;5.616;2023-06-05T08:48:46;10.70;;;8.63;;
58196;SDS011;43999;51.660;5.616;2023-06-05T08:51:19;7.97;;;7.03;;
58196;SDS011;43999;51.660;5.616;2023-06-05T08:54:09;11.95;;;7.80;;
58196;SDS011;43999;51.660;5.616;2023-06-05T08:56:40;8.57;;;6.97;;
58196;SDS011;43999;51.660;5.616;2023-06-05T08:59:12;9.38;;;8.50;;
58196;SDS011;43999;51.660;5.616;2023-06-05T09:01:42;11.45;;;7.82;;
58196;SDS011;43999;51.660;5.616;2023-06-05T09:04:11;10.27;;;7.80;;
58196;SDS011;43999;51.660;5.616;2023-06-05T09:06:38;12.70;;;7.38;;
58196;SDS011;43999;51.660;5.616;2023-06-05T09:09:07;10.68;;;7.15;;
58196;SDS011;43999;51.660;5.616;2023-06-05T09:11:36;9.55;;;7.70;;
58196;SDS011;43999;51.660;5.616;2023-06-05T09:14:06;9.35;;;6.78;;
58196;SDS011;43999;51.660;5.616;2023-06-05T09:16:34;11.25;;;7.70;;
58196;SDS011;43999;51.660;5.616;2023-06-05T09:19:12;10.38;;;8.45;;
58196;SDS011;43999;51.660;5.616;2023-06-05T09:21:39;8.75;;;7.60;;
58196;SDS011;43999;51.660;5.616;2023-06-05T09:24:19;9.50;;;6.90;;
58196;SDS011;43999;51.660;5.616;2023-06-05T09:26:55;9.18;;;7.03;;
58196;SDS011;43999;51.660;5.616;2023-06-05T09:29:28;11.02;;;7.88;;
58196;SDS011;43999;51.660;5.616;2023-06-05T09:32:15;11.63;;;7.53;;
58196;SDS011;43999;51.660;5.616;2023-06-05T09:34:47;8.18;;;7.38;;
58196;SDS011;43999;51.660;5.616;2023-06-05T09:37:32;9.68;;;7.47;;
58196;SDS011;43999;51.660;5.616;2023-06-05T09:40:02;8.65;;;7.35;;
58196;SDS011;43999;51.660;5.616;2023-06-05T09:42:35;11.50;;;7.60;;
58196;SDS011;43999;51.660;5.616;2023-06-05T09:45:02;8.32;;;7.47;;
58196;SDS011;43999;51.660;5.616;2023-06-05T09:47:31;10.13;;;8.15;;
58196;SDS011;43999;51.660;5.616;2023-06-05T09:50:21;9.18;;;6.82;;
58196;SDS011;43999;51.660;5.616;2023-06-05T09:52:54;11.00;;;7.78;;
58196;SDS011;43999;51.660;5.616;2023-06-05T09:55:23;9.40;;;8.27;;
58196;SDS011;43999;51.660;5.616;2023-06-05T09:57:55;7.65;;;6.53;;
58196;SDS011;43999;51.660;5.616;2023-06-05T10:00:26;10.55;;;6.82;;
58196;SDS011;43999;51.660;5.616;2023-06-05T10:02:54;8.95;;;7.47;;
58196;SDS011;43999;51.660;5.616;2023-06-05T10:05:25;7.22;;;6.53;;
58196;SDS011;43999;51.660;5.616;2023-06-05T10:07:56;11.20;;;7.03;;
58196;SDS011;43999;51.660;5.616;2023-06-05T10:10:26;12.05;;;8.15;;
58196;SDS011;43999;51.660;5.616;2023-06-05T10:12:56;8.93;;;7.60;;
58196;SDS011;43999;51.660;5.616;2023-06-05T10:15:24;7.18;;;6.43;;
58196;SDS011;43999;51.660;5.616;2023-06-05T10:17:54;7.75;;;6.85;;
58196;SDS011;43999;51.660;5.616;2023-06-05T10:20:23;7.60;;;6.68;;
58196;SDS011;43999;51.660;5.616;2023-06-05T10:22:51;8.05;;;7.22;;
58196;SDS011;43999;51.660;5.616;2023-06-05T10:25:20;7.05;;;5.57;;
58196;SDS011;43999;51.660;5.616;2023-06-05T10:28:03;8.95;;;6.45;;
58196;SDS011;43999;51.660;5.616;2023-06-05T10:34:19;12.45;;;7.15;;
58196;SDS011;43999;51.660;5.616;2023-06-05T10:40:10;7.07;;;6.38;;
58196;SDS011;43999;51.660;5.616;2023-06-05T10:42:38;8.73;;;7.10;;
58196;SDS011;43999;51.660;5.616;2023-06-05T10:45:06;12.13;;;6.95;;
58196;SDS011;43999;51.660;5.616;2023-06-05T10:52:48;7.43;;;6.10;;
58196;SDS011;43999;51.660;5.616;2023-06-05T10:55:18;10.30;;;6.30;;
58196;SDS011;43999;51.660;5.616;2023-06-05T11:00:32;8.00;;;6.55;;
58196;SDS011;43999;51.660;5.616;2023-06-05T11:03:01;9.73;;;7.60;;
58196;SDS011;43999;51.660;5.616;2023-06-05T11:05:29;9.55;;;6.03;;
58196;SDS011;43999;51.660;5.616;2023-06-05T11:11:03;6.45;;;5.85;;
58196;SDS011;43999;51.660;5.616;2023-06-05T11:13:52;8.02;;;5.93;;
58196;SDS011;43999;51.660;5.616;2023-06-05T11:16:30;7.78;;;6.30;;
58196;SDS011;43999;51.660;5.616;2023-06-05T11:22:00;7.55;;;6.50;;
58196;SDS011;43999;51.660;5.616;2023-06-05T11:24:37;10.15;;;6.85;;
58196;SDS011;43999;51.660;5.616;2023-06-05T11:27:05;9.35;;;6.05;;
58196;SDS011;43999;51.660;5.616;2023-06-05T11:29:35;9.88;;;6.43;;
58196;SDS011;43999;51.660;5.616;2023-06-05T11:32:10;15.13;;;6.47;;
58196;SDS011;43999;51.660;5.616;2023-06-05T11:34:39;7.63;;;5.57;;
58196;SDS011;43999;51.660;5.616;2023-06-05T11:37:16;13.95;;;7.22;;
58196;SDS011;43999;51.660;5.616;2023-06-05T11:39:45;9.52;;;6.40;;
58196;SDS011;43999;51.660;5.616;2023-06-05T11:44:51;6.72;;;5.68;;
58196;SDS011;43999;51.660;5.616;2023-06-05T11:47:22;6.97;;;6.28;;
58196;SDS011;43999;51.660;5.616;2023-06-05T11:50:07;8.02;;;5.57;;
58196;SDS011;43999;51.660;5.616;2023-06-05T11:55:15;8.27;;;5.57;;
58196;SDS011;43999;51.660;5.616;2023-06-05T11:57:48;9.02;;;6.80;;
58196;SDS011;43999;51.660;5.616;2023-06-05T12:00:22;7.07;;;5.60;;
58196;SDS011;43999;51.660;5.616;2023-06-05T12:02:52;8.20;;;6.15;;
58196;SDS011;43999;51.660;5.616;2023-06-05T12:05:20;8.20;;;5.25;;
58196;SDS011;43999;51.660;5.616;2023-06-05T12:07:48;8.82;;;5.70;;
58196;SDS011;43999;51.660;5.616;2023-06-05T12:10:17;6.78;;;5.60;;
58196;SDS011;43999;51.660;5.616;2023-06-05T12:12:52;5.80;;;4.97;;
58196;SDS011;43999;51.660;5.616;2023-06-05T12:15:20;9.02;;;6.15;;
58196;SDS011;43999;51.660;5.616;2023-06-05T12:17:52;6.85;;;6.00;;
58196;SDS011;43999;51.660;5.616;2023-06-05T12:20:23;7.95;;;5.30;;
58196;SDS011;43999;51.660;5.616;2023-06-05T12:22:52;8.23;;;5.38;;
58196;SDS011;43999;51.660;5.616;2023-06-05T12:25:23;6.88;;;5.28;;
58196;SDS011;43999;51.660;5.616;2023-06-05T12:27:50;7.57;;;5.43;;
58196;SDS011;43999;51.660;5.616;2023-06-05T12:30:19;5.57;;;4.93;;
58196;SDS011;43999;51.660;5.616;2023-06-05T12:32:46;5.07;;;4.10;;
58196;SDS011;43999;51.660;5.616;2023-06-05T12:35:22;8.15;;;5.47;;
58196;SDS011;43999;51.660;5.616;2023-06-05T12:37:51;6.25;;;4.82;;
58196;SDS011;43999;51.660;5.616;2023-06-05T12:40:18;5.68;;;3.97;;
58196;SDS011;43999;51.660;5.616;2023-06-05T12:43:02;9.07;;;6.15;;
58196;SDS011;43999;51.660;5.616;2023-06-05T12:45:30;9.60;;;6.10;;
58196;SDS011;43999;51.660;5.616;2023-06-05T12:47:59;8.23;;;5.40;;
58196;SDS011;43999;51.660;5.616;2023-06-05T12:50:27;7.90;;;5.55;;
58196;SDS011;43999;51.660;5.616;2023-06-05T12:52:55;6.90;;;5.30;;
58196;SDS011;43999;51.660;5.616;2023-06-05T12:55:22;6.45;;;3.80;;
58196;SDS011;43999;51.660;5.616;2023-06-05T12:57:49;8.68;;;4.07;;
58196;SDS011;43999;51.660;5.616;2023-06-05T13:00:17;7.10;;;4.38;;
58196;SDS011;43999;51.660;5.616;2023-06-05T13:02:45;4.40;;;3.30;;
58196;SDS011;43999;51.660;5.616;2023-06-05T13:05:15;7.78;;;3.92;;
58196;SDS011;43999;51.660;5.616;2023-06-05T13:07:43;4.65;;;3.22;;
58196;SDS011;43999;51.660;5.616;2023-06-05T13:10:11;9.10;;;4.80;;
58196;SDS011;43999;51.660;5.616;2023-06-05T13:12:38;5.85;;;3.92;;
58196;SDS011;43999;51.660;5.616;2023-06-05T13:15:06;4.85;;;3.58;;
58196;SDS011;43999;51.660;5.616;2023-06-05T13:17:35;4.22;;;3.30;;
58196;SDS011;43999;51.660;5.616;2023-06-05T13:20:05;5.50;;;3.45;;
58196;SDS011;43999;51.660;5.616;2023-06-05T13:22:42;11.38;;;3.85;;
58196;SDS011;43999;51.660;5.616;2023-06-05T13:25:09;6.72;;;4.10;;
58196;SDS011;43999;51.660;5.616;2023-06-05T13:27:37;5.30;;;4.22;;
58196;SDS011;43999;51.660;5.616;2023-06-05T13:30:05;5.90;;;3.42;;
58196;SDS011;43999;51.660;5.616;2023-06-05T13:32:35;5.22;;;3.42;;
58196;SDS011;43999;51.660;5.616;2023-06-05T13:35:06;7.38;;;3.80;;
58196;SDS011;43999;51.660;5.616;2023-06-05T13:37:35;6.15;;;3.63;;
58196;SDS011;43999;51.660;5.616;2023-06-05T13:40:07;4.47;;;3.08;;
58196;SDS011;43999;51.660;5.616;2023-06-05T13:42:38;6.30;;;4.00;;
58196;SDS011;43999;51.660;5.616;2023-06-05T13:45:06;6.18;;;3.97;;
58196;SDS011;43999;51.660;5.616;2023-06-05T13:47:34;4.70;;;3.72;;
58196;SDS011;43999;51.660;5.616;2023-06-05T13:50:03;5.72;;;3.20;;
58196;SDS011;43999;51.660;5.616;2023-06-05T13:52:33;5.25;;;3.15;;
58196;SDS011;43999;51.660;5.616;2023-06-05T13:55:01;4.97;;;3.60;;
58196;SDS011;43999;51.660;5.616;2023-06-05T13:57:30;5.10;;;3.70;;
58196;SDS011;43999;51.660;5.616;2023-06-05T13:59:57;5.10;;;3.40;;
58196;SDS011;43999;51.660;5.616;2023-06-05T14:02:24;4.18;;;3.00;;
58196;SDS011;43999;51.660;5.616;2023-06-05T14:04:52;5.70;;;4.07;;
58196;SDS011;43999;51.660;5.616;2023-06-05T14:07:19;7.20;;;3.65;;
58196;SDS011;43999;51.660;5.616;2023-06-05T14:09:47;4.47;;;3.42;;
58196;SDS011;43999;51.660;5.616;2023-06-05T14:12:14;6.07;;;3.85;;
58196;SDS011;43999;51.660;5.616;2023-06-05T14:14:43;4.60;;;4.20;;
58196;SDS011;43999;51.660;5.616;2023-06-05T14:17:12;6.65;;;4.57;;
58196;SDS011;43999;51.660;5.616;2023-06-05T14:19:40;4.13;;;3.65;;
58196;SDS011;43999;51.660;5.616;2023-06-05T14:22:08;4.22;;;3.83;;
58196;SDS011;43999;51.660;5.616;2023-06-05T14:24:36;4.90;;;3.92;;
58196;SDS011;43999;51.660;5.616;2023-06-05T14:27:06;4.75;;;3.78;;
58196;SDS011;43999;51.660;5.616;2023-06-05T14:29:36;5.95;;;3.88;;
58196;SDS011;43999;51.660;5.616;2023-06-05T14:32:03;5.40;;;3.47;;
58196;SDS011;43999;51.660;5.616;2023-06-05T14:34:31;4.60;;;3.90;;
58196;SDS011;43999;51.660;5.616;2023-06-05T14:37:02;5.22;;;3.33;;
58196;SDS011;43999;51.660;5.616;2023-06-05T14:39:29;5.57;;;3.70;;
58196;SDS011;43999;51.660;5.616;2023-06-05T14:41:57;7.07;;;4.35;;
58196;SDS011;43999;51.660;5.616;2023-06-05T14:44:25;7.35;;;3.95;;
58196;SDS011;43999;51.660;5.616;2023-06-05T14:46:53;4.47;;;3.58;;
58196;SDS011;43999;51.660;5.616;2023-06-05T14:49:25;7.03;;;4.15;;
58196;SDS011;43999;51.660;5.616;2023-06-05T14:51:53;4.47;;;3.55;;
58196;SDS011;43999;51.660;5.616;2023-06-05T14:54:20;3.95;;;3.55;;
58196;SDS011;43999;51.660;5.616;2023-06-05T14:56:49;7.32;;;3.75;;
58196;SDS011;43999;51.660;5.616;2023-06-05T14:59:16;4.30;;;3.42;;
58196;SDS011;43999;51.660;5.616;2023-06-05T15:01:46;4.55;;;3.50;;
58196;SDS011;43999;51.660;5.616;2023-06-05T15:04:14;4.07;;;3.70;;
58196;SDS011;43999;51.660;5.616;2023-06-05T15:06:42;7.47;;;4.07;;
58196;SDS011;43999;51.660;5.616;2023-06-05T15:09:09;6.13;;;3.92;;
58196;SDS011;43999;51.660;5.616;2023-06-05T15:11:36;4.72;;;3.58;;
58196;SDS011;43999;51.660;5.616;2023-06-05T15:14:04;5.38;;;3.50;;
58196;SDS011;43999;51.660;5.616;2023-06-05T15:16:31;5.03;;;4.10;;
58196;SDS011;43999;51.660;5.616;2023-06-05T15:19:09;4.43;;;4.00;;
58196;SDS011;43999;51.660;5.616;2023-06-05T15:21:36;8.43;;;4.50;;
58196;SDS011;43999;51.660;5.616;2023-06-05T15:24:04;5.13;;;3.38;;
58196;SDS011;43999;51.660;5.616;2023-06-05T15:26:32;5.93;;;4.68;;